createdAt,value
2018-09-03T00:02:28.687Z,19.40
2018-09-03T00:04:56.901Z,19.34
2018-09-03T00:07:25.105Z,19.27
2018-09-03T00:09:53.322Z,19.36
2018-09-03T00:12:21.525Z,19.46
2018-09-03T00:14:49.722Z,19.39
2018-09-03T00:17:17.968Z,19.41
2018-09-03T00:19:46.171Z,19.45
2018-09-03T00:22:14.382Z,19.40
2018-09-03T00:24:42.591Z,19.41
2018-09-03T00:27:10.810Z,19.49
2018-09-03T00:29:39.014Z,19.42
2018-09-03T00:32:12.821Z,19.24
2018-09-03T00:35:46.175Z,19.37
2018-09-03T00:38:19.548Z,19.27
2018-09-03T00:40:53.139Z,19.28
2018-09-03T00:43:26.577Z,19.31
2018-09-03T00:46:00.166Z,19.28
2018-09-03T00:48:28.378Z,19.27
2018-09-03T00:50:56.583Z,19.28
2018-09-03T00:53:25.058Z,19.26
2018-09-03T00:55:53.253Z,19.22
2018-09-03T00:58:21.523Z,19.26
2018-09-03T01:00:49.738Z,19.23
2018-09-03T01:03:17.941Z,19.25
2018-09-03T01:05:46.149Z,19.29
2018-09-03T01:08:14.349Z,19.27
2018-09-03T01:10:42.559Z,19.07
2018-09-03T01:13:10.772Z,19.01
2018-09-03T01:15:38.985Z,19.04
2018-09-03T01:18:07.193Z,18.93
2018-09-03T01:20:35.404Z,18.79
2018-09-03T01:23:03.605Z,18.81
2018-09-03T01:25:31.815Z,18.77
2018-09-03T01:28:00.021Z,18.71
2018-09-03T01:30:28.221Z,18.75
2018-09-03T01:32:56.430Z,18.78
2018-09-03T01:35:24.629Z,18.77
2018-09-03T01:37:52.837Z,18.75
2018-09-03T01:40:21.058Z,18.65
2018-09-03T01:42:49.275Z,18.63
2018-09-03T01:45:17.489Z,18.62
2018-09-03T01:47:45.694Z,18.60
2018-09-03T01:50:13.900Z,18.57
2018-09-03T01:52:42.089Z,18.54
2018-09-03T01:55:10.286Z,18.65
2018-09-03T01:57:38.498Z,18.53
2018-09-03T02:00:06.842Z,18.55
2018-09-03T02:02:35.045Z,18.55
2018-09-03T02:05:03.293Z,18.58
2018-09-03T02:07:31.525Z,18.55
2018-09-03T02:09:59.722Z,18.60
2018-09-03T02:12:27.930Z,18.25
2018-09-03T02:14:56.138Z,18.38
2018-09-03T02:17:24.365Z,18.48
2018-09-03T02:19:52.574Z,18.29
2018-09-03T02:22:20.777Z,18.35
2018-09-03T02:24:48.987Z,18.43
2018-09-03T02:27:17.181Z,18.49
2018-09-03T02:29:45.385Z,18.45
2018-09-03T02:32:13.589Z,18.48
2018-09-03T02:34:41.798Z,18.33
2018-09-03T02:37:10.010Z,18.20
2018-09-03T02:39:38.214Z,18.15
2018-09-03T02:42:06.438Z,18.02
2018-09-03T02:44:34.634Z,17.87
2018-09-03T02:47:03.075Z,18.13
2018-09-03T02:49:31.278Z,18.32
2018-09-03T02:51:59.493Z,18.21
2018-09-03T02:54:27.697Z,18.20
2018-09-03T02:56:55.918Z,17.97
2018-09-03T02:59:24.131Z,18.05
2018-09-03T03:01:52.346Z,18.15
2018-09-03T03:04:20.557Z,18.05
2018-09-03T03:06:48.766Z,18.14
2018-09-03T03:09:16.966Z,18.22
2018-09-03T03:11:45.282Z,18.07
2018-09-03T03:14:13.403Z,18.02
2018-09-03T03:16:41.605Z,18.12
2018-09-03T03:19:09.838Z,18.19
2018-09-03T03:21:38.054Z,18.38
2018-09-03T03:24:06.320Z,18.28
2018-09-03T03:26:34.517Z,18.03
2018-09-03T03:29:02.724Z,18.01
2018-09-03T03:31:30.918Z,18.02
2018-09-03T03:33:59.155Z,18.10
2018-09-03T03:36:27.359Z,18.17
2018-09-03T03:38:55.657Z,18.19
2018-09-03T03:41:23.865Z,18.31
2018-09-03T03:43:52.115Z,18.25
2018-09-03T03:46:20.317Z,18.30
2018-09-03T03:48:48.562Z,18.29
2018-09-03T03:51:17.182Z,18.13
2018-09-03T03:53:45.378Z,18.22
2018-09-03T03:56:13.594Z,18.06
2018-09-03T03:58:41.841Z,18.01
2018-09-03T04:01:10.059Z,18.22
2018-09-03T04:03:38.319Z,18.33
2018-09-03T04:06:06.630Z,18.39
2018-09-03T04:08:34.833Z,18.38
2018-09-03T04:11:03.054Z,18.50
2018-09-03T04:13:31.276Z,18.51
2018-09-03T04:15:59.499Z,18.47
2018-09-03T04:18:27.690Z,18.40
2018-09-03T04:20:56.257Z,18.43
2018-09-03T04:23:24.583Z,18.47
2018-09-03T04:25:52.729Z,18.41
2018-09-03T04:28:20.947Z,18.21
2018-09-03T04:30:49.186Z,18.00
2018-09-03T04:33:17.390Z,18.03
2018-09-03T04:35:45.625Z,18.21
2018-09-03T04:38:13.842Z,18.28
2018-09-03T04:40:42.065Z,18.29
2018-09-03T04:43:10.282Z,18.23
2018-09-03T04:45:38.549Z,18.19
2018-09-03T04:48:06.889Z,18.31
2018-09-03T04:50:34.982Z,18.34
2018-09-03T04:53:03.226Z,18.35
2018-09-03T04:55:31.430Z,18.37
2018-09-03T04:57:59.654Z,18.33
2018-09-03T05:00:27.854Z,18.36
2018-09-03T05:02:56.073Z,18.41
2018-09-03T05:05:24.557Z,18.38
2018-09-03T05:07:52.776Z,18.36
2018-09-03T05:10:21.085Z,18.31
2018-09-03T05:12:49.908Z,18.33
2018-09-03T05:15:18.131Z,18.34
2018-09-03T05:17:47.386Z,18.41
2018-09-03T05:20:15.644Z,18.37
2018-09-03T05:22:43.922Z,18.19
2018-09-03T05:25:12.151Z,18.30
2018-09-03T05:27:40.392Z,18.32
2018-09-03T05:30:09.781Z,18.22
2018-09-03T05:32:38.349Z,18.32
2018-09-03T05:35:07.683Z,18.38
2018-09-03T05:37:35.893Z,18.41
2018-09-03T05:40:04.185Z,18.31
2018-09-03T05:42:33.530Z,18.42
2018-09-03T05:45:02.833Z,18.40
2018-09-03T05:47:31.101Z,18.39
2018-09-03T05:49:59.309Z,18.39
2018-09-03T05:52:27.606Z,18.44
2018-09-03T05:54:56.905Z,18.51
2018-09-03T05:57:25.185Z,18.46
2018-09-03T05:59:53.483Z,18.49
2018-09-03T06:02:21.831Z,18.53
2018-09-03T06:04:50.186Z,18.44
2018-09-03T06:07:18.533Z,18.63
2018-09-03T06:09:46.753Z,18.61
2018-09-03T06:12:15.002Z,18.70
2018-09-03T06:14:44.230Z,18.67
2018-09-03T06:17:13.463Z,18.77
2018-09-03T06:19:41.662Z,18.72
2018-09-03T06:22:10.294Z,18.72
2018-09-03T06:24:38.854Z,18.77
2018-09-03T06:27:07.099Z,18.72
2018-09-03T06:29:36.333Z,18.62
2018-09-03T06:32:04.549Z,18.79
2018-09-03T06:34:32.794Z,18.85
2018-09-03T06:37:01.158Z,18.88
2018-09-03T06:39:29.379Z,18.77
2018-09-03T06:41:57.586Z,18.80
2018-09-03T06:44:25.806Z,18.81
2018-09-03T06:46:54.034Z,18.98
2018-09-03T06:49:22.342Z,19.02
2018-09-03T06:51:50.537Z,18.98
2018-09-03T06:54:18.817Z,19.07
2018-09-03T06:56:47.038Z,19.13
2018-09-03T06:59:15.261Z,19.05
2018-09-03T07:01:43.462Z,19.22
2018-09-03T07:04:11.702Z,19.02
2018-09-03T07:06:39.914Z,19.03
2018-09-03T07:09:09.324Z,19.16
2018-09-03T07:11:37.522Z,19.21
2018-09-03T07:14:05.890Z,19.22
2018-09-03T07:16:34.101Z,19.30
2018-09-03T07:19:02.358Z,19.35
2018-09-03T07:21:30.527Z,19.30
2018-09-03T07:23:58.758Z,19.37
2018-09-03T07:26:26.986Z,19.48
2018-09-03T07:28:55.228Z,19.39
2018-09-03T07:31:23.409Z,19.38
2018-09-03T07:33:51.630Z,19.33
2018-09-03T07:36:19.838Z,19.44
2018-09-03T07:38:48.042Z,19.19
2018-09-03T07:41:16.300Z,19.15
2018-09-03T07:43:44.530Z,19.26
2018-09-03T07:46:12.742Z,19.22
2018-09-03T07:48:40.955Z,19.36
2018-09-03T07:51:09.263Z,19.23
2018-09-03T07:53:37.382Z,19.12
2018-09-03T07:56:05.654Z,19.22
2018-09-03T07:58:33.873Z,19.19
2018-09-03T08:01:02.102Z,19.22
2018-09-03T08:03:30.293Z,19.32
2018-09-03T08:05:58.502Z,19.40
2018-09-03T08:08:26.705Z,19.45
2018-09-03T08:10:54.920Z,19.37
2018-09-03T08:13:28.481Z,19.49
2018-09-03T08:15:56.695Z,19.51
2018-09-03T08:18:24.910Z,19.53
2018-09-03T08:20:53.130Z,19.39
2018-09-03T08:23:21.334Z,19.53
2018-09-03T08:25:49.543Z,19.61
2018-09-03T08:28:17.773Z,19.68
2018-09-03T08:30:45.989Z,19.62
2018-09-03T08:33:14.220Z,19.73
2018-09-03T08:35:42.451Z,19.70
2018-09-03T08:38:10.717Z,19.75
2018-09-03T08:40:38.934Z,19.98
2018-09-03T08:43:07.149Z,19.94
2018-09-03T08:45:35.364Z,19.85
2018-09-03T08:48:03.730Z,19.84
2018-09-03T08:50:31.930Z,20.09
2018-09-03T08:53:00.214Z,20.04
2018-09-03T08:55:28.401Z,20.01
2018-09-03T08:57:56.618Z,19.73
2018-09-03T09:00:25.106Z,19.93
2018-09-03T09:02:53.326Z,20.02
2018-09-03T09:05:21.542Z,20.11
2018-09-03T09:07:49.758Z,20.18
2018-09-03T09:10:17.978Z,19.98
2018-09-03T09:12:46.194Z,19.98
2018-09-03T09:15:14.405Z,20.16
2018-09-03T09:17:42.690Z,20.07
2018-09-03T09:20:10.840Z,20.02
2018-09-03T09:22:39.059Z,20.12
2018-09-03T09:25:07.313Z,20.10
2018-09-03T09:27:35.499Z,20.27
2018-09-03T09:30:04.241Z,20.24
2018-09-03T09:32:32.446Z,20.40
2018-09-03T09:35:06.175Z,20.47
2018-09-03T09:37:34.350Z,20.49
2018-09-03T09:40:02.586Z,20.33
2018-09-03T09:42:30.791Z,20.34
2018-09-03T09:44:59.046Z,20.61
2018-09-03T09:47:27.333Z,20.34
2018-09-03T09:49:55.566Z,20.71
2018-09-03T09:52:23.774Z,20.90
2018-09-03T09:54:52.061Z,21.03
2018-09-03T09:57:20.241Z,21.19
2018-09-03T09:59:48.478Z,21.22
2018-09-03T10:02:16.714Z,21.30
2018-09-03T10:04:44.934Z,21.28
2018-09-03T10:07:13.153Z,21.16
2018-09-03T10:09:41.363Z,21.08
2018-09-03T10:12:09.595Z,21.17
2018-09-03T10:14:37.820Z,21.09
2018-09-03T10:17:06.045Z,21.13
2018-09-03T10:19:34.236Z,21.01
2018-09-03T10:22:02.485Z,21.08
2018-09-03T10:24:30.702Z,21.16
2018-09-03T10:26:58.908Z,21.43
2018-09-03T10:29:27.122Z,21.52
2018-09-03T10:31:55.332Z,21.34
2018-09-03T10:34:23.553Z,21.27
2018-09-03T10:36:51.766Z,21.26
2018-09-03T10:39:20.034Z,21.41
2018-09-03T10:41:48.238Z,21.38
2018-09-03T10:44:16.453Z,21.20
2018-09-03T10:46:45.403Z,21.52
2018-09-03T10:49:13.627Z,21.48
2018-09-03T10:51:41.832Z,21.47
2018-09-03T10:54:10.045Z,21.59
2018-09-03T10:56:38.266Z,21.49
2018-09-03T10:59:06.612Z,21.68
2018-09-03T11:01:34.814Z,21.59
2018-09-03T11:04:03.045Z,21.48
2018-09-03T11:06:31.395Z,21.70
2018-09-03T11:08:59.635Z,21.80
2018-09-03T11:11:27.837Z,21.85
2018-09-03T11:13:56.054Z,21.90
2018-09-03T11:16:24.354Z,21.91
2018-09-03T11:18:52.650Z,21.97
2018-09-03T11:21:20.960Z,21.80
2018-09-03T11:23:49.115Z,21.87
2018-09-03T11:26:17.318Z,22.05
2018-09-03T11:28:45.604Z,22.02
2018-09-03T11:31:13.778Z,22.23
2018-09-03T11:33:41.973Z,21.78
2018-09-03T11:36:10.187Z,22.08
2018-09-03T11:38:38.414Z,22.22
2018-09-03T11:41:06.662Z,22.04
2018-09-03T11:43:34.866Z,22.19
2018-09-03T11:46:03.169Z,22.31
2018-09-03T11:48:31.373Z,22.27
2018-09-03T11:50:59.606Z,22.42
2018-09-03T11:53:27.809Z,22.23
2018-09-03T11:55:56.028Z,22.19
2018-09-03T11:58:24.270Z,22.18
2018-09-03T12:00:56.760Z,22.35
2018-09-03T12:03:24.978Z,22.49
2018-09-03T12:05:53.198Z,22.39
2018-09-03T12:08:21.451Z,22.21
2018-09-03T12:10:49.662Z,22.40
2018-09-03T12:13:17.872Z,22.57
2018-09-03T12:16:20.294Z,22.72
2018-09-03T12:18:48.566Z,22.63
2018-09-03T12:21:17.107Z,22.64
2018-09-03T12:23:45.436Z,22.71
2018-09-03T12:26:13.666Z,22.55
2018-09-03T12:28:41.887Z,22.77
2018-09-03T12:31:10.130Z,22.83
2018-09-03T12:33:38.350Z,22.95
2018-09-03T12:36:06.638Z,22.93
2018-09-03T12:38:35.190Z,22.78
2018-09-03T12:41:03.567Z,22.75
2018-09-03T12:43:31.822Z,22.78
2018-09-03T12:46:01.250Z,22.60
2018-09-03T12:48:30.273Z,22.51
2018-09-03T12:50:58.961Z,22.52
2018-09-03T12:53:28.402Z,22.54
2018-09-03T12:55:56.616Z,22.76
2018-09-03T12:58:24.934Z,22.82
2018-09-03T13:00:53.230Z,22.87
2018-09-03T13:03:21.423Z,22.80
2018-09-03T13:05:49.811Z,22.83
2018-09-03T13:08:18.058Z,22.78
2018-09-03T13:10:46.358Z,22.65
2018-09-03T13:13:14.639Z,22.65
2018-09-03T13:15:42.871Z,22.88
2018-09-03T13:18:11.084Z,23.04
2018-09-03T13:20:39.293Z,22.92
2018-09-03T13:23:07.598Z,22.89
2018-09-03T13:25:35.814Z,22.75
2018-09-03T13:28:04.030Z,22.70
2018-09-03T13:30:32.346Z,22.76
2018-09-03T13:33:00.597Z,22.96
2018-09-03T13:35:28.877Z,22.87
2018-09-03T13:37:57.097Z,22.75
2018-09-03T13:40:25.338Z,22.66
2018-09-03T13:42:53.578Z,22.70
2018-09-03T13:45:21.789Z,22.69
2018-09-03T13:47:50.030Z,22.80
2018-09-03T13:50:18.266Z,22.65
2018-09-03T13:52:46.474Z,22.59
2018-09-03T13:55:14.750Z,22.59
2018-09-03T13:57:42.998Z,22.64
2018-09-03T14:00:12.205Z,22.59
2018-09-03T14:02:40.481Z,22.38
2018-09-03T14:05:08.747Z,22.32
2018-09-03T14:07:36.984Z,22.51
2018-09-03T14:10:05.373Z,22.45
2018-09-03T14:12:33.526Z,22.56
2018-09-03T14:15:01.783Z,22.48
2018-09-03T14:17:30.054Z,22.36
2018-09-03T14:19:58.835Z,22.37
2018-09-03T14:22:26.989Z,22.38
2018-09-03T14:24:55.315Z,22.41
2018-09-03T14:27:23.533Z,22.56
2018-09-03T14:29:51.840Z,22.60
2018-09-03T14:32:20.072Z,22.38
2018-09-03T14:34:48.315Z,22.34
2018-09-03T14:37:16.573Z,22.47
2018-09-03T14:39:44.793Z,22.51
2018-09-03T14:42:13.009Z,22.46
2018-09-03T14:44:41.216Z,22.33
2018-09-03T14:47:09.575Z,22.49
2018-09-03T14:49:37.831Z,22.48
2018-09-03T14:52:06.082Z,22.46
2018-09-03T14:54:36.410Z,22.45
2018-09-03T14:57:04.686Z,22.36
2018-09-03T14:59:32.915Z,22.48
2018-09-03T15:02:01.195Z,22.45
2018-09-03T15:04:29.449Z,22.56
2018-09-03T15:06:57.666Z,22.48
2018-09-03T15:09:25.916Z,22.36
2018-09-03T15:11:54.138Z,22.29
2018-09-03T15:14:22.369Z,22.26
2018-09-03T15:16:50.593Z,22.32
2018-09-03T15:19:18.817Z,22.28
2018-09-03T15:21:47.044Z,22.23
2018-09-03T15:24:15.273Z,22.29
2018-09-03T15:26:43.640Z,22.24
2018-09-03T15:29:11.733Z,22.30
2018-09-03T15:31:39.940Z,22.32
2018-09-03T15:34:08.149Z,22.21
2018-09-03T15:36:36.460Z,22.17
2018-09-03T15:39:08.632Z,22.10
2018-09-03T15:41:36.894Z,22.16
2018-09-03T15:44:05.359Z,22.22
2018-09-03T15:46:33.722Z,22.25
2018-09-03T15:49:02.055Z,22.24
2018-09-03T15:51:30.259Z,22.23
2018-09-03T15:53:58.565Z,22.25
2018-09-03T15:56:26.785Z,22.18
2018-09-03T15:58:55.030Z,22.05
2018-09-03T16:01:23.298Z,22.05
2018-09-03T16:03:51.518Z,22.23
2018-09-03T16:06:19.820Z,22.26
2018-09-03T16:08:49.117Z,22.20
2018-09-03T16:11:17.412Z,22.25
2018-09-03T16:13:45.798Z,22.26
2018-09-03T16:16:14.050Z,22.14
2018-09-03T16:18:42.255Z,22.16
2018-09-03T16:21:10.459Z,22.18
2018-09-03T16:23:38.767Z,22.16
2018-09-03T16:26:07.013Z,22.17
2018-09-03T16:28:35.227Z,22.14
2018-09-03T16:31:03.451Z,22.14
2018-09-03T16:33:31.694Z,22.11
2018-09-03T16:36:00.035Z,22.08
2018-09-03T16:38:28.185Z,22.08
2018-09-03T16:40:56.406Z,21.98
2018-09-03T16:43:24.614Z,21.98
2018-09-03T16:45:53.058Z,21.78
2018-09-03T16:48:21.277Z,21.83
2018-09-03T16:50:49.501Z,21.90
2018-09-03T16:53:17.737Z,21.88
2018-09-03T16:55:45.951Z,21.74
2018-09-03T16:58:14.194Z,21.67
2018-09-03T17:00:42.427Z,21.71
2018-09-03T17:03:10.679Z,21.70
2018-09-03T17:05:38.953Z,21.69
2018-09-03T17:08:07.368Z,21.63
2018-09-03T17:10:35.485Z,21.60
2018-09-03T17:13:03.711Z,21.58
2018-09-03T17:15:31.935Z,21.48
2018-09-03T17:18:00.580Z,21.27
2018-09-03T17:20:28.870Z,21.31
2018-09-03T17:22:57.030Z,21.29
2018-09-03T17:25:25.234Z,21.15
2018-09-03T17:27:53.481Z,20.92
2018-09-03T17:30:21.802Z,20.99
2018-09-03T17:32:50.030Z,20.77
2018-09-03T17:35:18.252Z,20.79
2018-09-03T17:37:46.463Z,20.97
2018-09-03T17:40:14.785Z,21.06
2018-09-03T17:42:43.090Z,21.09
2018-09-03T17:45:11.429Z,21.04
2018-09-03T17:47:40.213Z,21.11
2018-09-03T17:50:08.510Z,21.15
2018-09-03T17:52:36.718Z,20.95
2018-09-03T17:55:04.974Z,21.07
2018-09-03T17:57:33.194Z,21.07
2018-09-03T18:00:01.454Z,21.15
2018-09-03T18:02:29.668Z,21.05
2018-09-03T18:04:58.085Z,20.92
2018-09-03T18:07:26.385Z,20.91
2018-09-03T18:09:54.701Z,20.80
2018-09-03T18:12:22.914Z,20.80
2018-09-03T18:14:51.133Z,20.79
2018-09-03T18:17:19.328Z,20.82
2018-09-03T18:19:47.556Z,20.81
2018-09-03T18:22:15.762Z,20.77
2018-09-03T18:24:43.996Z,20.71
2018-09-03T18:27:12.279Z,20.62
2018-09-03T18:29:40.544Z,20.59
2018-09-03T18:32:08.773Z,20.49
2018-09-03T18:34:37.003Z,20.38
2018-09-03T18:37:05.484Z,20.39
2018-09-03T18:39:33.803Z,20.38
2018-09-03T18:42:02.166Z,20.33
2018-09-03T18:44:30.350Z,20.23
2018-09-03T18:46:58.598Z,20.23
2018-09-03T18:49:26.800Z,20.44
2018-09-03T18:51:55.015Z,20.27
2018-09-03T18:54:23.285Z,20.11
2018-09-03T18:56:51.497Z,20.19
2018-09-03T18:59:19.749Z,20.35
2018-09-03T19:01:47.993Z,20.32
2018-09-03T19:04:16.273Z,20.25
2018-09-03T19:06:44.497Z,20.32
2018-09-03T19:09:12.735Z,20.31
2018-09-03T19:11:40.974Z,20.38
2018-09-03T19:14:09.565Z,20.46
2018-09-03T19:16:37.769Z,20.19
2018-09-03T19:19:06.034Z,20.32
2018-09-03T19:21:34.345Z,20.27
2018-09-03T19:24:02.546Z,20.20
2018-09-03T19:26:30.766Z,20.26
2018-09-03T19:28:58.974Z,20.37
2018-09-03T19:31:27.297Z,20.12
2018-09-03T19:33:55.525Z,20.22
2018-09-03T19:36:23.763Z,20.15
2018-09-03T19:38:53.070Z,20.12
2018-09-03T19:41:21.306Z,20.14
2018-09-03T19:43:49.520Z,20.23
2018-09-03T19:46:17.750Z,20.15
2018-09-03T19:48:45.973Z,20.31
2018-09-03T19:51:14.177Z,20.04
2018-09-03T19:53:43.426Z,20.06
2018-09-03T19:56:11.647Z,20.13
2018-09-03T19:58:39.877Z,20.14
2018-09-03T20:01:08.084Z,20.00
2018-09-03T20:03:37.197Z,20.00
2018-09-03T20:06:05.500Z,20.02
2018-09-03T20:08:34.971Z,20.03
2018-09-03T20:11:03.214Z,19.99
2018-09-03T20:13:31.826Z,20.07
2018-09-03T20:16:00.046Z,20.06
2018-09-03T20:18:28.389Z,19.96
2018-09-03T20:20:56.678Z,19.94
2018-09-03T20:23:24.969Z,19.97
2018-09-03T20:25:55.262Z,19.79
2018-09-03T20:28:24.945Z,19.78
2018-09-03T20:30:53.202Z,19.90
2018-09-03T20:33:21.720Z,19.80
2018-09-03T20:35:50.018Z,19.90
2018-09-03T20:38:19.766Z,19.87
2018-09-03T20:40:48.083Z,19.89
2018-09-03T20:43:16.372Z,19.79
2018-09-03T20:45:44.689Z,19.71
2018-09-03T20:48:13.091Z,19.33
2018-09-03T20:50:41.372Z,19.44
2018-09-03T20:53:09.595Z,19.65
2018-09-03T20:55:37.934Z,19.75
2018-09-03T20:58:06.354Z,19.84
2018-09-03T21:00:34.611Z,19.79
2018-09-03T21:03:02.881Z,19.82
2018-09-03T21:05:31.150Z,19.75
2018-09-03T21:07:59.362Z,19.77
2018-09-03T21:10:27.582Z,19.83
2018-09-03T21:12:55.830Z,19.74
2018-09-03T21:15:24.160Z,19.74
2018-09-03T21:17:53.499Z,19.79
2018-09-03T21:20:21.741Z,19.78
2018-09-03T21:22:49.959Z,19.64
2018-09-03T21:25:18.262Z,19.71
2018-09-03T21:27:46.478Z,19.65
2018-09-03T21:30:14.685Z,19.71
2018-09-03T21:32:42.930Z,19.67
2018-09-03T21:35:11.257Z,19.66
2018-09-03T21:37:39.583Z,19.76
2018-09-03T21:40:08.073Z,19.76
2018-09-03T21:42:36.350Z,19.65
2018-09-03T21:45:04.653Z,19.65
2018-09-03T21:47:32.882Z,19.78
2018-09-03T21:50:01.089Z,19.79
2018-09-03T21:52:29.346Z,19.77
2018-09-03T21:54:57.583Z,19.79
2018-09-03T21:57:25.806Z,19.86
2018-09-03T21:59:54.034Z,19.78
2018-09-03T22:02:22.627Z,19.82
2018-09-03T22:04:50.860Z,19.75
2018-09-03T22:07:19.130Z,19.77
2018-09-03T22:09:47.365Z,19.78
2018-09-03T22:12:15.642Z,19.80
2018-09-03T22:14:43.855Z,19.79
2018-09-03T22:17:12.078Z,19.75
2018-09-03T22:19:40.311Z,19.66
2018-09-03T22:22:08.688Z,19.44
2018-09-03T22:24:36.933Z,19.53
2018-09-03T22:27:06.610Z,19.62
2018-09-03T22:29:34.857Z,19.61
2018-09-03T22:32:03.119Z,19.61
2018-09-03T22:34:31.526Z,19.58
2018-09-03T22:36:59.754Z,19.51
2018-09-03T22:39:27.978Z,19.57
2018-09-03T22:41:56.207Z,19.52
2018-09-03T22:44:24.470Z,19.52
2018-09-03T22:46:52.761Z,19.53
2018-09-03T22:49:20.994Z,19.48
2018-09-03T22:51:49.266Z,19.38
2018-09-03T22:54:17.488Z,19.52
2018-09-03T22:56:45.693Z,19.44
2018-09-03T22:59:14.914Z,19.50
2018-09-03T23:01:43.210Z,19.58
2018-09-03T23:04:11.438Z,19.58
2018-09-03T23:06:39.696Z,19.62
2018-09-03T23:09:08.329Z,19.45
2018-09-03T23:11:36.593Z,19.44
2018-09-03T23:14:05.525Z,19.39
2018-09-03T23:16:33.738Z,19.41
2018-09-03T23:19:01.949Z,19.44
2018-09-03T23:21:30.189Z,19.42
2018-09-03T23:23:58.405Z,19.39
2018-09-03T23:26:26.878Z,19.41
2018-09-03T23:28:55.156Z,19.36
2018-09-03T23:31:23.430Z,19.33
2018-09-03T23:33:51.708Z,19.40
2018-09-03T23:36:19.937Z,19.42
2018-09-03T23:38:48.173Z,19.45
2018-09-03T23:41:16.406Z,19.39
2018-09-03T23:43:44.617Z,19.40
2018-09-03T23:46:12.825Z,19.37
2018-09-03T23:48:41.077Z,19.33
2018-09-03T23:51:09.355Z,19.35
2018-09-03T23:53:37.573Z,19.23
2018-09-03T23:56:05.780Z,19.34
2018-09-03T23:58:34.034Z,19.29
